sensor_id;sensor_type;location;lat;lon;timestamp;pressure;altitude;pressure_sealevel;temperature;humidity
38912;BME280;28444;48.056;14.408;2023-04-06T00:01:20;97939.56;;;-0.33;71.88
38912;BME280;28444;48.056;14.408;2023-04-06T00:04:07;97934.59;;;-0.46;72.78
38912;BME280;28444;48.056;14.408;2023-04-06T00:06:54;97929.22;;;-0.46;72.87
38912;BME280;28444;48.056;14.408;2023-04-06T00:09:41;97930.16;;;-0.49;73.09
38912;BME280;28444;48.056;14.408;2023-04-06T00:12:28;97923.84;;;-0.46;72.94
38912;BME280;28444;48.056;14.408;2023-04-06T00:15:15;97926.78;;;-0.44;73.33
38912;BME280;28444;48.056;14.408;2023-04-06T00:18:03;97921.41;;;-0.44;73.39
38912;BME280;28444;48.056;14.408;2023-04-06T00:20:50;97919.63;;;-0.53;73.26
38912;BME280;28444;48.056;14.408;2023-04-06T00:23:37;97911.00;;;-0.62;73.82
38912;BME280;28444;48.056;14.408;2023-04-06T00:26:24;97916.91;;;-0.58;74.11
38912;BME280;28444;48.056;14.408;2023-04-06T00:29:11;97911.75;;;-0.62;73.60
38912;BME280;28444;48.056;14.408;2023-04-06T00:31:58;97914.22;;;-0.58;73.17
38912;BME280;28444;48.056;14.408;2023-04-06T00:34:46;97903.72;;;-0.56;73.40
38912;BME280;28444;48.056;14.408;2023-04-06T00:37:33;97904.69;;;-0.59;73.43
38912;BME280;28444;48.056;14.408;2023-04-06T00:40:20;97903.44;;;-0.64;73.14
38912;BME280;28444;48.056;14.408;2023-04-06T00:43:07;97907.78;;;-0.72;73.23
38912;BME280;28444;48.056;14.408;2023-04-06T00:45:55;97894.81;;;-0.74;73.86
38912;BME280;28444;48.056;14.408;2023-04-06T00:48:43;97895.09;;;-0.71;73.42
38912;BME280;28444;48.056;14.408;2023-04-06T00:51:30;97894.88;;;-0.62;73.51
38912;BME280;28444;48.056;14.408;2023-04-06T00:54:17;97893.91;;;-0.65;73.68
38912;BME280;28444;48.056;14.408;2023-04-06T00:57:05;97889.44;;;-0.74;74.16
38912;BME280;28444;48.056;14.408;2023-04-06T00:59:53;97895.25;;;-0.81;73.42
38912;BME280;28444;48.056;14.408;2023-04-06T01:02:40;97895.91;;;-0.91;74.13
38912;BME280;28444;48.056;14.408;2023-04-06T01:05:27;97885.38;;;-0.95;73.62
38912;BME280;28444;48.056;14.408;2023-04-06T01:08:14;97891.00;;;-0.93;73.66
38912;BME280;28444;48.056;14.408;2023-04-06T01:11:01;97889.78;;;-0.92;73.92
38912;BME280;28444;48.056;14.408;2023-04-06T01:13:48;97893.19;;;-0.97;74.33
38912;BME280;28444;48.056;14.408;2023-04-06T01:16:36;97898.03;;;-1.01;75.43
38912;BME280;28444;48.056;14.408;2023-04-06T01:19:23;97893.34;;;-1.06;75.01
38912;BME280;28444;48.056;14.408;2023-04-06T01:22:15;97889.44;;;-1.05;73.79
38912;BME280;28444;48.056;14.408;2023-04-06T01:25:02;97887.44;;;-1.10;74.28
38912;BME280;28444;48.056;14.408;2023-04-06T01:27:50;97885.91;;;-1.17;74.42
38912;BME280;28444;48.056;14.408;2023-04-06T01:30:37;97900.44;;;-1.29;74.56
38912;BME280;28444;48.056;14.408;2023-04-06T01:33:24;97906.84;;;-1.47;75.57
38912;BME280;28444;48.056;14.408;2023-04-06T01:36:11;97905.31;;;-1.54;75.50
38912;BME280;28444;48.056;14.408;2023-04-06T01:38:58;97898.78;;;-1.73;76.43
38912;BME280;28444;48.056;14.408;2023-04-06T01:41:45;97890.25;;;-1.92;77.51
38912;BME280;28444;48.056;14.408;2023-04-06T01:44:33;97893.41;;;-1.94;77.98
38912;BME280;28444;48.056;14.408;2023-04-06T01:47:20;97900.03;;;-1.89;78.72
38912;BME280;28444;48.056;14.408;2023-04-06T01:50:08;97907.88;;;-2.06;77.95
38912;BME280;28444;48.056;14.408;2023-04-06T01:52:55;97897.03;;;-2.17;78.74
38912;BME280;28444;48.056;14.408;2023-04-06T01:55:42;97899.34;;;-2.25;79.39
38912;BME280;28444;48.056;14.408;2023-04-06T01:58:29;97899.09;;;-2.06;79.39
38912;BME280;28444;48.056;14.408;2023-04-06T02:01:16;97902.13;;;-1.99;79.30
38912;BME280;28444;48.056;14.408;2023-04-06T02:04:04;97908.03;;;-1.95;79.02
38912;BME280;28444;48.056;14.408;2023-04-06T02:06:51;97907.94;;;-2.00;78.92
38912;BME280;28444;48.056;14.408;2023-04-06T02:09:38;97903.88;;;-1.96;79.08
38912;BME280;28444;48.056;14.408;2023-04-06T02:12:25;97906.75;;;-1.99;79.02
38912;BME280;28444;48.056;14.408;2023-04-06T02:15:12;97905.00;;;-2.02;78.82
38912;BME280;28444;48.056;14.408;2023-04-06T02:18:00;97902.19;;;-1.93;78.12
38912;BME280;28444;48.056;14.408;2023-04-06T02:20:47;97898.38;;;-1.86;78.25
38912;BME280;28444;48.056;14.408;2023-04-06T02:23:34;97893.66;;;-1.71;77.31
38912;BME280;28444;48.056;14.408;2023-04-06T02:26:21;97904.06;;;-1.58;76.38
38912;BME280;28444;48.056;14.408;2023-04-06T02:29:08;97905.59;;;-1.52;75.67
38912;BME280;28444;48.056;14.408;2023-04-06T02:31:56;97901.97;;;-1.49;75.85
38912;BME280;28444;48.056;14.408;2023-04-06T02:34:43;97898.59;;;-1.43;76.09
38912;BME280;28444;48.056;14.408;2023-04-06T02:37:30;97906.84;;;-1.47;76.13
38912;BME280;28444;48.056;14.408;2023-04-06T02:40:17;97902.91;;;-1.52;76.36
38912;BME280;28444;48.056;14.408;2023-04-06T02:43:04;97904.44;;;-1.45;76.29
38912;BME280;28444;48.056;14.408;2023-04-06T02:45:51;97900.03;;;-1.48;76.04
38912;BME280;28444;48.056;14.408;2023-04-06T02:48:39;97899.28;;;-1.49;76.03
38912;BME280;28444;48.056;14.408;2023-04-06T02:51:26;97895.09;;;-1.50;76.19
38912;BME280;28444;48.056;14.408;2023-04-06T02:54:13;97897.59;;;-1.46;75.66
38912;BME280;28444;48.056;14.408;2023-04-06T02:57:01;97899.13;;;-1.39;75.42
38912;BME280;28444;48.056;14.408;2023-04-06T02:59:48;97895.22;;;-1.38;76.20
38912;BME280;28444;48.056;14.408;2023-04-06T03:02:35;97896.97;;;-1.35;76.16
38912;BME280;28444;48.056;14.408;2023-04-06T03:05:22;97894.69;;;-1.42;76.84
38912;BME280;28444;48.056;14.408;2023-04-06T03:08:09;97898.47;;;-1.34;77.07
38912;BME280;28444;48.056;14.408;2023-04-06T03:10:56;97903.47;;;-1.42;75.84
38912;BME280;28444;48.056;14.408;2023-04-06T03:13:44;97900.94;;;-1.31;75.53
38912;BME280;28444;48.056;14.408;2023-04-06T03:16:31;97905.84;;;-1.24;74.50
38912;BME280;28444;48.056;14.408;2023-04-06T03:19:18;97893.50;;;-1.15;73.80
38912;BME280;28444;48.056;14.408;2023-04-06T03:22:05;97894.44;;;-1.18;73.67
38912;BME280;28444;48.056;14.408;2023-04-06T03:24:52;97898.06;;;-1.22;74.13
38912;BME280;28444;48.056;14.408;2023-04-06T03:27:39;97905.84;;;-1.24;73.74
38912;BME280;28444;48.056;14.408;2023-04-06T03:30:27;97900.97;;;-1.25;74.24
38912;BME280;28444;48.056;14.408;2023-04-06T03:33:14;97903.06;;;-1.35;76.05
38912;BME280;28444;48.056;14.408;2023-04-06T03:36:01;97897.38;;;-1.42;76.56
38912;BME280;28444;48.056;14.408;2023-04-06T03:38:48;97891.91;;;-1.54;76.02
38912;BME280;28444;48.056;14.408;2023-04-06T03:41:35;97901.09;;;-1.60;77.04
38912;BME280;28444;48.056;14.408;2023-04-06T03:44:22;97905.78;;;-1.55;77.38
38912;BME280;28444;48.056;14.408;2023-04-06T03:47:09;97913.13;;;-1.56;77.16
38912;BME280;28444;48.056;14.408;2023-04-06T03:49:56;97905.59;;;-1.52;76.90
38912;BME280;28444;48.056;14.408;2023-04-06T03:52:43;97908.47;;;-1.55;77.01
38912;BME280;28444;48.056;14.408;2023-04-06T03:55:30;97914.47;;;-1.66;77.11
38912;BME280;28444;48.056;14.408;2023-04-06T03:58:17;97914.19;;;-1.68;77.66
38912;BME280;28444;48.056;14.408;2023-04-06T04:01:04;97921.78;;;-1.66;77.34
38912;BME280;28444;48.056;14.408;2023-04-06T04:03:52;97912.91;;;-1.73;76.85
38912;BME280;28444;48.056;14.408;2023-04-06T04:06:39;97917.00;;;-1.77;76.93
38912;BME280;28444;48.056;14.408;2023-04-06T04:09:26;97920.56;;;-1.65;76.31
38912;BME280;28444;48.056;14.408;2023-04-06T04:12:15;97918.00;;;-1.54;75.78
38912;BME280;28444;48.056;14.408;2023-04-06T04:15:03;97924.78;;;-1.59;75.59
38912;BME280;28444;48.056;14.408;2023-04-06T04:17:51;97925.44;;;-1.64;75.42
38912;BME280;28444;48.056;14.408;2023-04-06T04:20:38;97926.72;;;-1.59;75.72
38912;BME280;28444;48.056;14.408;2023-04-06T04:23:25;97928.06;;;-1.70;76.02
38912;BME280;28444;48.056;14.408;2023-04-06T04:26:12;97935.50;;;-2.00;76.77
38912;BME280;28444;48.056;14.408;2023-04-06T04:28:59;97934.41;;;-2.08;77.34
38912;BME280;28444;48.056;14.408;2023-04-06T04:31:46;97942.09;;;-2.15;77.91
38912;BME280;28444;48.056;14.408;2023-04-06T04:34:34;97948.53;;;-2.28;78.18
38912;BME280;28444;48.056;14.408;2023-04-06T04:37:21;97949.06;;;-2.24;78.23
38912;BME280;28444;48.056;14.408;2023-04-06T04:40:08;97951.25;;;-2.22;77.79
38912;BME280;28444;48.056;14.408;2023-04-06T04:42:56;97948.13;;;-2.21;77.59
38912;BME280;28444;48.056;14.408;2023-04-06T04:45:43;97960.03;;;-2.22;78.60
38912;BME280;28444;48.056;14.408;2023-04-06T04:48:30;97963.53;;;-2.15;79.81
38912;BME280;28444;48.056;14.408;2023-04-06T04:51:17;97959.44;;;-1.96;79.67
38912;BME280;28444;48.056;14.408;2023-04-06T04:54:04;97960.91;;;-1.95;78.53
38912;BME280;28444;48.056;14.408;2023-04-06T04:56:51;97965.13;;;-1.88;78.02
38912;BME280;28444;48.056;14.408;2023-04-06T04:59:38;97962.13;;;-1.76;76.91
38912;BME280;28444;48.056;14.408;2023-04-06T05:02:25;97963.13;;;-1.73;77.04
38912;BME280;28444;48.056;14.408;2023-04-06T05:05:13;97962.41;;;-1.74;77.46
38912;BME280;28444;48.056;14.408;2023-04-06T05:08:01;97967.75;;;-1.74;77.18
38912;BME280;28444;48.056;14.408;2023-04-06T05:10:48;97968.50;;;-1.73;77.46
38912;BME280;28444;48.056;14.408;2023-04-06T05:13:35;97958.09;;;-1.65;76.65
38912;BME280;28444;48.056;14.408;2023-04-06T05:16:22;97955.34;;;-1.51;75.74
38912;BME280;28444;48.056;14.408;2023-04-06T05:19:09;97961.97;;;-1.46;75.78
38912;BME280;28444;48.056;14.408;2023-04-06T05:21:58;97958.56;;;-1.47;75.65
38912;BME280;28444;48.056;14.408;2023-04-06T05:24:45;97960.31;;;-1.43;75.70
38912;BME280;28444;48.056;14.408;2023-04-06T05:27:32;97965.97;;;-1.41;75.52
38912;BME280;28444;48.056;14.408;2023-04-06T05:30:20;97966.00;;;-1.36;74.94
38912;BME280;28444;48.056;14.408;2023-04-06T05:33:07;97975.31;;;-1.31;75.44
38912;BME280;28444;48.056;14.408;2023-04-06T05:35:54;97968.81;;;-1.25;75.96
38912;BME280;28444;48.056;14.408;2023-04-06T05:38:41;97979.81;;;-1.23;76.06
38912;BME280;28444;48.056;14.408;2023-04-06T05:41:28;97978.88;;;-1.19;75.85
38912;BME280;28444;48.056;14.408;2023-04-06T05:44:15;97979.00;;;-1.08;75.21
38912;BME280;28444;48.056;14.408;2023-04-06T05:47:02;97983.31;;;-0.90;75.48
38912;BME280;28444;48.056;14.408;2023-04-06T05:49:49;97975.56;;;-0.83;74.84
38912;BME280;28444;48.056;14.408;2023-04-06T05:52:36;97977.56;;;-0.78;74.00
38912;BME280;28444;48.056;14.408;2023-04-06T05:55:23;97986.13;;;-0.74;74.32
38912;BME280;28444;48.056;14.408;2023-04-06T05:58:10;97986.94;;;-0.67;74.31
38912;BME280;28444;48.056;14.408;2023-04-06T06:01:01;97991.75;;;-0.45;73.66
38912;BME280;28444;48.056;14.408;2023-04-06T06:03:48;97992.06;;;-0.38;73.69
38912;BME280;28444;48.056;14.408;2023-04-06T06:06:35;97997.78;;;-0.25;73.71
38912;BME280;28444;48.056;14.408;2023-04-06T06:09:22;97996.75;;;-0.33;74.15
38912;BME280;28444;48.056;14.408;2023-04-06T06:12:09;97991.03;;;-0.14;73.71
38912;BME280;28444;48.056;14.408;2023-04-06T06:15:00;97987.19;;;-0.02;74.25
38912;BME280;28444;48.056;14.408;2023-04-06T06:17:47;97982.59;;;0.10;74.04
38912;BME280;28444;48.056;14.408;2023-04-06T06:20:34;97983.59;;;0.18;73.52
38912;BME280;28444;48.056;14.408;2023-04-06T06:23:21;97983.75;;;0.40;73.39
38912;BME280;28444;48.056;14.408;2023-04-06T06:26:08;97982.34;;;0.56;73.35
38912;BME280;28444;48.056;14.408;2023-04-06T06:28:55;97994.56;;;0.57;72.99
38912;BME280;28444;48.056;14.408;2023-04-06T06:31:42;97981.38;;;0.59;73.69
38912;BME280;28444;48.056;14.408;2023-04-06T06:34:29;97984.31;;;0.67;73.36
38912;BME280;28444;48.056;14.408;2023-04-06T06:37:16;97988.78;;;0.81;72.36
38912;BME280;28444;48.056;14.408;2023-04-06T06:40:04;97984.88;;;0.93;72.06
38912;BME280;28444;48.056;14.408;2023-04-06T06:42:51;97987.59;;;0.99;71.38
38912;BME280;28444;48.056;14.408;2023-04-06T06:45:38;97986.16;;;1.09;70.05
38912;BME280;28444;48.056;14.408;2023-04-06T06:48:26;97995.44;;;1.03;70.57
38912;BME280;28444;48.056;14.408;2023-04-06T06:51:13;98004.25;;;1.09;71.43
38912;BME280;28444;48.056;14.408;2023-04-06T06:54:00;97994.25;;;1.09;71.18
38912;BME280;28444;48.056;14.408;2023-04-06T06:56:47;98005.50;;;1.19;70.78
38912;BME280;28444;48.056;14.408;2023-04-06T06:59:34;98005.28;;;1.17;71.65
38912;BME280;28444;48.056;14.408;2023-04-06T07:02:21;98000.63;;;1.23;70.85
38912;BME280;28444;48.056;14.408;2023-04-06T07:05:09;98005.03;;;1.26;69.84
38912;BME280;28444;48.056;14.408;2023-04-06T07:08:12;98006.28;;;1.31;69.27
38912;BME280;28444;48.056;14.408;2023-04-06T07:10:59;98013.38;;;1.39;69.34
38912;BME280;28444;48.056;14.408;2023-04-06T07:13:46;98016.06;;;1.45;68.88
38912;BME280;28444;48.056;14.408;2023-04-06T07:16:33;98019.03;;;1.47;68.86
38912;BME280;28444;48.056;14.408;2023-04-06T07:19:20;98022.72;;;1.61;68.64
38912;BME280;28444;48.056;14.408;2023-04-06T07:22:07;98031.03;;;1.74;68.34
38912;BME280;28444;48.056;14.408;2023-04-06T07:24:54;98021.72;;;1.92;69.27
38912;BME280;28444;48.056;14.408;2023-04-06T07:27:41;98019.25;;;1.88;69.27
38912;BME280;28444;48.056;14.408;2023-04-06T07:30:29;98024.66;;;2.00;70.22
38912;BME280;28444;48.056;14.408;2023-04-06T07:33:18;98021.97;;;2.05;67.75
38912;BME280;28444;48.056;14.408;2023-04-06T07:36:05;98019.75;;;2.15;67.31
38912;BME280;28444;48.056;14.408;2023-04-06T07:38:52;98015.31;;;2.17;66.81
38912;BME280;28444;48.056;14.408;2023-04-06T07:41:40;98006.41;;;2.45;66.92
38912;BME280;28444;48.056;14.408;2023-04-06T07:44:27;98003.66;;;2.62;65.50
38912;BME280;28444;48.056;14.408;2023-04-06T07:47:14;98007.78;;;2.74;64.89
38912;BME280;28444;48.056;14.408;2023-04-06T07:50:01;98014.13;;;2.82;64.35
38912;BME280;28444;48.056;14.408;2023-04-06T07:52:48;98010.50;;;3.16;64.06
38912;BME280;28444;48.056;14.408;2023-04-06T07:55:35;98006.47;;;3.33;62.83
38912;BME280;28444;48.056;14.408;2023-04-06T07:58:22;98005.72;;;3.33;63.83
38912;BME280;28444;48.056;14.408;2023-04-06T08:01:09;98013.28;;;3.46;63.42
38912;BME280;28444;48.056;14.408;2023-04-06T08:03:57;98008.66;;;3.71;63.55
38912;BME280;28444;48.056;14.408;2023-04-06T08:06:44;98006.78;;;3.90;63.14
38912;BME280;28444;48.056;14.408;2023-04-06T08:09:31;98001.88;;;3.89;61.02
38912;BME280;28444;48.056;14.408;2023-04-06T08:12:18;98002.59;;;4.14;59.60
38912;BME280;28444;48.056;14.408;2023-04-06T08:15:05;98005.66;;;4.04;60.62
38912;BME280;28444;48.056;14.408;2023-04-06T08:17:53;97995.13;;;4.01;59.43
38912;BME280;28444;48.056;14.408;2023-04-06T08:20:40;97998.88;;;4.17;59.60
38912;BME280;28444;48.056;14.408;2023-04-06T08:23:27;97997.13;;;4.44;59.08
38912;BME280;28444;48.056;14.408;2023-04-06T08:26:14;97998.13;;;4.65;57.35
38912;BME280;28444;48.056;14.408;2023-04-06T08:29:01;98000.31;;;4.86;58.26
38912;BME280;28444;48.056;14.408;2023-04-06T08:31:50;97999.16;;;4.81;57.21
38912;BME280;28444;48.056;14.408;2023-04-06T08:34:37;97997.47;;;4.78;57.45
38912;BME280;28444;48.056;14.408;2023-04-06T08:37:24;97996.75;;;4.96;57.00
38912;BME280;28444;48.056;14.408;2023-04-06T08:40:12;97995.28;;;4.95;55.26
38912;BME280;28444;48.056;14.408;2023-04-06T08:43:03;97995.56;;;5.11;55.58
38912;BME280;28444;48.056;14.408;2023-04-06T08:45:55;98003.84;;;5.18;55.20
38912;BME280;28444;48.056;14.408;2023-04-06T08:48:42;98004.69;;;5.26;53.26
38912;BME280;28444;48.056;14.408;2023-04-06T08:51:30;98000.06;;;5.40;53.33
38912;BME280;28444;48.056;14.408;2023-04-06T08:54:17;97999.03;;;5.43;50.54
38912;BME280;28444;48.056;14.408;2023-04-06T08:57:05;98003.00;;;5.42;51.13
38912;BME280;28444;48.056;14.408;2023-04-06T08:59:54;97993.59;;;5.43;53.71
38912;BME280;28444;48.056;14.408;2023-04-06T09:02:45;97996.88;;;5.04;51.27
38912;BME280;28444;48.056;14.408;2023-04-06T09:05:32;97995.75;;;5.31;52.66
38912;BME280;28444;48.056;14.408;2023-04-06T09:08:20;97995.34;;;5.60;51.94
38912;BME280;28444;48.056;14.408;2023-04-06T09:11:08;97988.72;;;5.74;51.02
38912;BME280;28444;48.056;14.408;2023-04-06T09:13:56;98001.63;;;5.68;51.74
38912;BME280;28444;48.056;14.408;2023-04-06T09:16:45;97988.84;;;5.63;51.07
38912;BME280;28444;48.056;14.408;2023-04-06T09:19:32;97980.97;;;5.78;49.38
38912;BME280;28444;48.056;14.408;2023-04-06T09:22:19;97974.31;;;5.79;48.79
38912;BME280;28444;48.056;14.408;2023-04-06T09:25:10;97979.25;;;5.94;49.32
38912;BME280;28444;48.056;14.408;2023-04-06T09:28:04;97964.28;;;5.74;46.39
38912;BME280;28444;48.056;14.408;2023-04-06T09:30:53;97957.97;;;5.66;48.19
38912;BME280;28444;48.056;14.408;2023-04-06T09:33:43;97959.66;;;5.55;49.76
38912;BME280;28444;48.056;14.408;2023-04-06T09:36:35;97965.16;;;5.50;48.05
38912;BME280;28444;48.056;14.408;2023-04-06T09:39:22;97957.91;;;5.39;48.93
38912;BME280;28444;48.056;14.408;2023-04-06T09:42:24;97962.91;;;5.35;49.20
38912;BME280;28444;48.056;14.408;2023-04-06T09:45:12;97953.66;;;5.44;50.77
38912;BME280;28444;48.056;14.408;2023-04-06T09:48:00;97948.28;;;5.57;48.84
38912;BME280;28444;48.056;14.408;2023-04-06T09:50:49;97951.13;;;5.78;47.33
38912;BME280;28444;48.056;14.408;2023-04-06T09:53:38;97951.41;;;5.61;49.44
38912;BME280;28444;48.056;14.408;2023-04-06T09:56:30;97946.31;;;5.84;48.10
38912;BME280;28444;48.056;14.408;2023-04-06T09:59:57;97944.34;;;5.85;49.77
38912;BME280;28444;48.056;14.408;2023-04-06T10:03:01;97942.41;;;5.98;48.06
38912;BME280;28444;48.056;14.408;2023-04-06T10:06:02;97940.06;;;5.89;47.78
38912;BME280;28444;48.056;14.408;2023-04-06T10:08:52;97934.22;;;5.85;47.57
38912;BME280;28444;48.056;14.408;2023-04-06T10:11:42;97942.19;;;5.96;47.81
38912;BME280;28444;48.056;14.408;2023-04-06T10:14:31;97934.06;;;5.96;46.08
38912;BME280;28444;48.056;14.408;2023-04-06T10:17:18;97925.97;;;5.91;47.75
38912;BME280;28444;48.056;14.408;2023-04-06T10:20:25;97915.66;;;6.02;46.32
38912;BME280;28444;48.056;14.408;2023-04-06T10:23:33;97916.94;;;6.15;50.80
38912;BME280;28444;48.056;14.408;2023-04-06T10:26:21;97913.66;;;6.43;48.13
38912;BME280;28444;48.056;14.408;2023-04-06T10:29:09;97910.31;;;6.23;45.90
38912;BME280;28444;48.056;14.408;2023-04-06T10:31:56;97919.75;;;6.09;46.75
38912;BME280;28444;48.056;14.408;2023-04-06T10:34:43;97906.16;;;6.22;47.81
38912;BME280;28444;48.056;14.408;2023-04-06T10:37:46;97903.44;;;6.09;45.78
38912;BME280;28444;48.056;14.408;2023-04-06T10:40:38;97908.34;;;6.37;47.75
38912;BME280;28444;48.056;14.408;2023-04-06T10:43:25;97898.50;;;6.47;46.18
38912;BME280;28444;48.056;14.408;2023-04-06T10:46:12;97889.00;;;6.41;47.82
38912;BME280;28444;48.056;14.408;2023-04-06T10:49:12;97895.53;;;6.59;49.03
38912;BME280;28444;48.056;14.408;2023-04-06T10:51:59;97884.34;;;6.62;48.79
38912;BME280;28444;48.056;14.408;2023-04-06T10:54:46;97885.06;;;6.63;46.02
38912;BME280;28444;48.056;14.408;2023-04-06T10:57:36;97892.28;;;6.60;47.09
38912;BME280;28444;48.056;14.408;2023-04-06T11:00:23;97883.56;;;6.75;45.58
38912;BME280;28444;48.056;14.408;2023-04-06T11:03:25;97888.88;;;6.81;44.26
38912;BME280;28444;48.056;14.408;2023-04-06T11:06:32;97883.38;;;6.73;43.99
38912;BME280;28444;48.056;14.408;2023-04-06T11:09:29;97881.97;;;6.45;45.90
38912;BME280;28444;48.056;14.408;2023-04-06T11:12:25;97884.66;;;6.72;47.07
38912;BME280;28444;48.056;14.408;2023-04-06T11:15:12;97876.28;;;6.70;47.89
38912;BME280;28444;48.056;14.408;2023-04-06T11:18:03;97863.84;;;6.95;46.19
38912;BME280;28444;48.056;14.408;2023-04-06T11:20:51;97871.31;;;6.82;45.38
38912;BME280;28444;48.056;14.408;2023-04-06T11:23:38;97872.28;;;6.71;44.27
38912;BME280;28444;48.056;14.408;2023-04-06T11:26:25;97861.34;;;6.97;45.72
38912;BME280;28444;48.056;14.408;2023-04-06T11:29:12;97868.22;;;6.98;45.26
38912;BME280;28444;48.056;14.408;2023-04-06T11:32:01;97859.41;;;7.06;45.97
38912;BME280;28444;48.056;14.408;2023-04-06T11:34:49;97856.03;;;7.13;45.92
38912;BME280;28444;48.056;14.408;2023-04-06T11:37:36;97847.25;;;7.28;46.30
38912;BME280;28444;48.056;14.408;2023-04-06T11:40:23;97844.00;;;7.29;47.20
38912;BME280;28444;48.056;14.408;2023-04-06T11:43:11;97844.78;;;7.66;46.70
38912;BME280;28444;48.056;14.408;2023-04-06T11:46:02;97845.31;;;7.64;46.89
38912;BME280;28444;48.056;14.408;2023-04-06T11:48:49;97846.34;;;7.82;45.41
38912;BME280;28444;48.056;14.408;2023-04-06T11:51:37;97835.41;;;7.46;44.38
38912;BME280;28444;48.056;14.408;2023-04-06T11:54:34;97844.69;;;7.51;46.94
38912;BME280;28444;48.056;14.408;2023-04-06T11:57:22;97830.94;;;7.56;44.49
38912;BME280;28444;48.056;14.408;2023-04-06T12:00:13;97824.81;;;7.63;46.46
38912;BME280;28444;48.056;14.408;2023-04-06T12:03:00;97829.59;;;7.42;44.65
38912;BME280;28444;48.056;14.408;2023-04-06T12:05:47;97834.69;;;7.45;46.88
38912;BME280;28444;48.056;14.408;2023-04-06T12:08:36;97830.00;;;7.54;45.13
38912;BME280;28444;48.056;14.408;2023-04-06T12:11:23;97824.28;;;7.65;46.96
38912;BME280;28444;48.056;14.408;2023-04-06T12:14:11;97824.56;;;7.82;45.43
38912;BME280;28444;48.056;14.408;2023-04-06T12:16:58;97825.72;;;7.66;45.97
38912;BME280;28444;48.056;14.408;2023-04-06T12:19:46;97814.41;;;7.26;44.32
38912;BME280;28444;48.056;14.408;2023-04-06T12:22:33;97813.78;;;7.40;45.06
38912;BME280;28444;48.056;14.408;2023-04-06T12:25:20;97819.56;;;7.37;45.08
38912;BME280;28444;48.056;14.408;2023-04-06T12:28:07;97810.53;;;7.42;45.14
38912;BME280;28444;48.056;14.408;2023-04-06T12:30:55;97806.16;;;7.67;45.63
38912;BME280;28444;48.056;14.408;2023-04-06T12:33:42;97796.44;;;7.87;44.90
38912;BME280;28444;48.056;14.408;2023-04-06T12:36:31;97791.72;;;7.88;43.64
38912;BME280;28444;48.056;14.408;2023-04-06T12:39:19;97795.00;;;7.94;44.91
38912;BME280;28444;48.056;14.408;2023-04-06T12:42:07;97790.56;;;8.19;44.89
38912;BME280;28444;48.056;14.408;2023-04-06T12:44:55;97782.75;;;8.16;44.63
38912;BME280;28444;48.056;14.408;2023-04-06T12:47:42;97783.34;;;8.30;45.40
38912;BME280;28444;48.056;14.408;2023-04-06T12:50:30;97796.03;;;8.19;42.80
38912;BME280;28444;48.056;14.408;2023-04-06T12:53:17;97786.88;;;8.02;42.82
38912;BME280;28444;48.056;14.408;2023-04-06T12:56:11;97778.78;;;8.25;42.49
38912;BME280;28444;48.056;14.408;2023-04-06T12:58:59;97783.50;;;8.24;42.67
38912;BME280;28444;48.056;14.408;2023-04-06T13:01:46;97779.38;;;8.38;42.44
38912;BME280;28444;48.056;14.408;2023-04-06T13:04:34;97779.34;;;8.31;42.42
38912;BME280;28444;48.056;14.408;2023-04-06T13:07:21;97777.72;;;8.35;43.61
38912;BME280;28444;48.056;14.408;2023-04-06T13:10:08;97771.44;;;8.63;44.52
38912;BME280;28444;48.056;14.408;2023-04-06T13:12:56;97771.25;;;8.61;45.07
38912;BME280;28444;48.056;14.408;2023-04-06T13:15:43;97764.72;;;8.64;43.62
38912;BME280;28444;48.056;14.408;2023-04-06T13:18:30;97761.97;;;8.57;42.35
38912;BME280;28444;48.056;14.408;2023-04-06T13:21:18;97763.53;;;8.29;43.67
38912;BME280;28444;48.056;14.408;2023-04-06T13:24:07;97761.97;;;8.49;43.07
38912;BME280;28444;48.056;14.408;2023-04-06T13:26:54;97757.28;;;8.80;41.91
38912;BME280;28444;48.056;14.408;2023-04-06T13:29:42;97756.34;;;8.85;43.19
38912;BME280;28444;48.056;14.408;2023-04-06T13:32:29;97759.19;;;8.34;40.22
38912;BME280;28444;48.056;14.408;2023-04-06T13:35:17;97748.06;;;8.24;42.28
38912;BME280;28444;48.056;14.408;2023-04-06T13:38:04;97743.88;;;8.08;44.29
38912;BME280;28444;48.056;14.408;2023-04-06T13:40:52;97749.81;;;7.99;42.13
38912;BME280;28444;48.056;14.408;2023-04-06T13:43:39;97747.72;;;8.20;42.31
38912;BME280;28444;48.056;14.408;2023-04-06T13:46:26;97745.34;;;8.24;43.99
38912;BME280;28444;48.056;14.408;2023-04-06T13:49:14;97732.91;;;8.44;44.24
38912;BME280;28444;48.056;14.408;2023-04-06T13:52:02;97736.00;;;8.63;44.34
38912;BME280;28444;48.056;14.408;2023-04-06T13:54:49;97736.72;;;8.56;43.02
38912;BME280;28444;48.056;14.408;2023-04-06T13:57:37;97740.47;;;8.30;41.29
38912;BME280;28444;48.056;14.408;2023-04-06T14:00:24;97736.06;;;8.12;40.60
38912;BME280;28444;48.056;14.408;2023-04-06T14:03:11;97718.84;;;8.25;42.11
38912;BME280;28444;48.056;14.408;2023-04-06T14:05:58;97728.88;;;8.37;43.81
38912;BME280;28444;48.056;14.408;2023-04-06T14:09:01;97714.75;;;8.62;43.57
38912;BME280;28444;48.056;14.408;2023-04-06T14:11:49;97717.09;;;8.81;42.83
38912;BME280;28444;48.056;14.408;2023-04-06T14:14:36;97712.56;;;8.68;41.92
38912;BME280;28444;48.056;14.408;2023-04-06T14:17:22;97717.09;;;8.88;41.89
38912;BME280;28444;48.056;14.408;2023-04-06T14:20:10;97712.53;;;9.06;43.09
38912;BME280;28444;48.056;14.408;2023-04-06T14:23:01;97709.25;;;9.00;41.09
38912;BME280;28444;48.056;14.408;2023-04-06T14:25:48;97720.19;;;8.92;42.13
38912;BME280;28444;48.056;14.408;2023-04-06T14:28:35;97716.91;;;8.71;41.66
38912;BME280;28444;48.056;14.408;2023-04-06T14:31:23;97707.81;;;8.84;40.77
38912;BME280;28444;48.056;14.408;2023-04-06T14:34:10;97709.81;;;8.99;43.63
38912;BME280;28444;48.056;14.408;2023-04-06T14:36:57;97700.34;;;9.00;40.41
38912;BME280;28444;48.056;14.408;2023-04-06T14:39:44;97699.09;;;9.01;41.79
38912;BME280;28444;48.056;14.408;2023-04-06T14:42:31;97708.34;;;9.13;40.75
38912;BME280;28444;48.056;14.408;2023-04-06T14:45:18;97709.44;;;9.10;40.21